Forest, Mississippi
Current Conditions -  °F | °C
As of 3:54 AM on Sunday 25 Jan 2015 (Local Time) from KJAN Reporting Station
Clear Clear  
Wind Chill: 33°   Ceiling: Unl
Heat Index: 38°   Visibility: 10mi
Dew Point: 35°   Wind: 6mph
Humidity: 89%   Direction: 170°S
Pressure: 29.97"   Gusts: NA
Location:  32.36°N, 89.47°W
Report Text: KJAN 250954Z AUTO 17005KT 10SM CLR 03/02 A2997 RMK AO2 SLP149 T00330017
Loading
Personal Weather Stations






























Interactive Weather Map New forecast layout! Learn more

10-Day Weather Forecast

Advertisements
Track Severe Weather on mobile